sensor_id;sensor_type;location;lat;lon;timestamp;P1;durP1;ratioP1;P2;durP2;ratioP2
61407;SDS011;47274;43.054;25.146;2023-09-19T00:01:42;12.73;;;6.13;;
61407;SDS011;47274;43.054;25.146;2023-09-19T00:04:13;15.73;;;6.40;;
61407;SDS011;47274;43.054;25.146;2023-09-19T00:06:40;12.35;;;5.97;;
61407;SDS011;47274;43.054;25.146;2023-09-19T00:09:06;12.10;;;5.93;;
61407;SDS011;47274;43.054;25.146;2023-09-19T00:11:36;13.00;;;5.93;;
61407;SDS011;47274;43.054;25.146;2023-09-19T00:14:06;13.95;;;6.07;;
61407;SDS011;47274;43.054;25.146;2023-09-19T00:16:34;15.00;;;6.53;;
61407;SDS011;47274;43.054;25.146;2023-09-19T00:19:01;11.57;;;5.90;;
61407;SDS011;47274;43.054;25.146;2023-09-19T00:21:33;12.02;;;5.80;;
61407;SDS011;47274;43.054;25.146;2023-09-19T00:23:59;13.85;;;6.10;;
61407;SDS011;47274;43.054;25.146;2023-09-19T00:26:25;13.02;;;6.47;;
61407;SDS011;47274;43.054;25.146;2023-09-19T00:28:54;12.35;;;6.05;;
61407;SDS011;47274;43.054;25.146;2023-09-19T00:31:20;12.40;;;5.93;;
61407;SDS011;47274;43.054;25.146;2023-09-19T00:33:50;10.00;;;5.57;;
61407;SDS011;47274;43.054;25.146;2023-09-19T00:36:16;12.68;;;6.28;;
61407;SDS011;47274;43.054;25.146;2023-09-19T00:38:43;13.32;;;6.28;;
61407;SDS011;47274;43.054;25.146;2023-09-19T00:41:11;13.75;;;5.90;;
61407;SDS011;47274;43.054;25.146;2023-09-19T00:43:38;14.07;;;6.22;;
61407;SDS011;47274;43.054;25.146;2023-09-19T00:46:05;13.73;;;6.32;;
61407;SDS011;47274;43.054;25.146;2023-09-19T00:48:35;12.40;;;6.25;;
61407;SDS011;47274;43.054;25.146;2023-09-19T00:51:09;10.73;;;6.22;;
61407;SDS011;47274;43.054;25.146;2023-09-19T00:53:35;14.98;;;6.38;;
61407;SDS011;47274;43.054;25.146;2023-09-19T00:56:05;12.98;;;6.07;;
61407;SDS011;47274;43.054;25.146;2023-09-19T00:58:34;13.45;;;6.03;;
61407;SDS011;47274;43.054;25.146;2023-09-19T01:01:02;13.32;;;6.28;;
61407;SDS011;47274;43.054;25.146;2023-09-19T01:03:34;12.30;;;6.45;;
61407;SDS011;47274;43.054;25.146;2023-09-19T01:06:01;14.70;;;6.68;;
61407;SDS011;47274;43.054;25.146;2023-09-19T01:08:28;12.27;;;6.03;;
61407;SDS011;47274;43.054;25.146;2023-09-19T01:10:55;12.82;;;6.00;;
61407;SDS011;47274;43.054;25.146;2023-09-19T01:13:35;12.80;;;5.85;;
61407;SDS011;47274;43.054;25.146;2023-09-19T01:30:21;14.80;;;6.50;;
61407;SDS011;47274;43.054;25.146;2023-09-19T01:32:52;10.95;;;6.05;;
61407;SDS011;47274;43.054;25.146;2023-09-19T01:35:19;15.65;;;6.43;;
61407;SDS011;47274;43.054;25.146;2023-09-19T01:37:45;13.38;;;6.13;;
61407;SDS011;47274;43.054;25.146;2023-09-19T01:40:14;14.30;;;6.70;;
61407;SDS011;47274;43.054;25.146;2023-09-19T01:42:54;14.48;;;7.00;;
61407;SDS011;47274;43.054;25.146;2023-09-19T01:48:59;13.60;;;6.80;;
61407;SDS011;47274;43.054;25.146;2023-09-19T01:54:51;15.48;;;7.32;;
61407;SDS011;47274;43.054;25.146;2023-09-19T01:57:32;13.70;;;6.70;;
61407;SDS011;47274;43.054;25.146;2023-09-19T02:00:05;13.48;;;7.20;;
61407;SDS011;47274;43.054;25.146;2023-09-19T02:02:43;13.95;;;6.55;;
61407;SDS011;47274;43.054;25.146;2023-09-19T02:05:21;14.73;;;6.90;;
61407;SDS011;47274;43.054;25.146;2023-09-19T02:07:49;13.70;;;7.30;;
61407;SDS011;47274;43.054;25.146;2023-09-19T02:10:16;15.35;;;6.80;;
61407;SDS011;47274;43.054;25.146;2023-09-19T02:12:42;14.25;;;7.13;;
61407;SDS011;47274;43.054;25.146;2023-09-19T02:15:08;14.80;;;7.25;;
61407;SDS011;47274;43.054;25.146;2023-09-19T02:17:34;15.80;;;7.28;;
61407;SDS011;47274;43.054;25.146;2023-09-19T02:20:01;15.13;;;6.93;;
61407;SDS011;47274;43.054;25.146;2023-09-19T02:22:29;15.68;;;6.72;;
61407;SDS011;47274;43.054;25.146;2023-09-19T02:24:55;14.55;;;7.38;;
61407;SDS011;47274;43.054;25.146;2023-09-19T02:27:24;14.68;;;6.80;;
61407;SDS011;47274;43.054;25.146;2023-09-19T02:29:50;16.83;;;7.53;;
61407;SDS011;47274;43.054;25.146;2023-09-19T02:32:17;13.93;;;6.57;;
61407;SDS011;47274;43.054;25.146;2023-09-19T02:34:43;14.75;;;7.05;;
61407;SDS011;47274;43.054;25.146;2023-09-19T02:37:10;16.17;;;7.00;;
61407;SDS011;47274;43.054;25.146;2023-09-19T02:39:35;18.27;;;7.10;;
61407;SDS011;47274;43.054;25.146;2023-09-19T02:42:02;17.02;;;6.93;;
61407;SDS011;47274;43.054;25.146;2023-09-19T02:44:29;15.25;;;6.68;;
61407;SDS011;47274;43.054;25.146;2023-09-19T02:46:55;15.38;;;7.00;;
61407;SDS011;47274;43.054;25.146;2023-09-19T02:49:22;13.65;;;6.63;;
61407;SDS011;47274;43.054;25.146;2023-09-19T02:51:48;15.52;;;7.00;;
61407;SDS011;47274;43.054;25.146;2023-09-19T02:54:14;13.65;;;6.55;;
61407;SDS011;47274;43.054;25.146;2023-09-19T02:56:41;16.58;;;6.78;;
61407;SDS011;47274;43.054;25.146;2023-09-19T02:59:07;12.85;;;6.57;;
61407;SDS011;47274;43.054;25.146;2023-09-19T03:01:35;13.68;;;6.88;;
61407;SDS011;47274;43.054;25.146;2023-09-19T03:04:04;12.60;;;6.38;;
61407;SDS011;47274;43.054;25.146;2023-09-19T03:06:32;15.80;;;7.03;;
61407;SDS011;47274;43.054;25.146;2023-09-19T03:08:58;12.82;;;6.35;;
61407;SDS011;47274;43.054;25.146;2023-09-19T03:11:26;14.02;;;6.57;;
61407;SDS011;47274;43.054;25.146;2023-09-19T03:13:55;15.15;;;6.60;;
61407;SDS011;47274;43.054;25.146;2023-09-19T03:16:22;15.88;;;6.90;;
61407;SDS011;47274;43.054;25.146;2023-09-19T03:18:51;13.32;;;6.72;;
61407;SDS011;47274;43.054;25.146;2023-09-19T03:21:21;14.63;;;6.53;;
61407;SDS011;47274;43.054;25.146;2023-09-19T03:23:47;14.32;;;6.93;;
61407;SDS011;47274;43.054;25.146;2023-09-19T03:26:13;15.63;;;7.10;;
61407;SDS011;47274;43.054;25.146;2023-09-19T03:28:44;16.67;;;7.43;;
61407;SDS011;47274;43.054;25.146;2023-09-19T03:31:12;15.95;;;7.70;;
61407;SDS011;47274;43.054;25.146;2023-09-19T03:33:40;16.17;;;7.15;;
61407;SDS011;47274;43.054;25.146;2023-09-19T03:36:07;16.63;;;7.95;;
61407;SDS011;47274;43.054;25.146;2023-09-19T03:38:33;16.08;;;7.13;;
61407;SDS011;47274;43.054;25.146;2023-09-19T03:41:00;15.05;;;7.38;;
61407;SDS011;47274;43.054;25.146;2023-09-19T03:43:34;15.20;;;7.35;;
61407;SDS011;47274;43.054;25.146;2023-09-19T03:46:03;14.45;;;7.30;;
61407;SDS011;47274;43.054;25.146;2023-09-19T03:48:34;16.15;;;7.90;;
61407;SDS011;47274;43.054;25.146;2023-09-19T03:51:00;15.70;;;7.65;;
61407;SDS011;47274;43.054;25.146;2023-09-19T03:53:27;18.15;;;7.80;;
61407;SDS011;47274;43.054;25.146;2023-09-19T03:55:53;14.43;;;7.47;;
61407;SDS011;47274;43.054;25.146;2023-09-19T03:58:19;16.95;;;7.32;;
61407;SDS011;47274;43.054;25.146;2023-09-19T04:00:47;16.35;;;7.47;;
61407;SDS011;47274;43.054;25.146;2023-09-19T04:03:15;14.65;;;7.07;;
61407;SDS011;47274;43.054;25.146;2023-09-19T04:05:46;15.48;;;7.38;;
61407;SDS011;47274;43.054;25.146;2023-09-19T04:08:15;15.32;;;7.30;;
61407;SDS011;47274;43.054;25.146;2023-09-19T04:10:42;18.00;;;7.65;;
61407;SDS011;47274;43.054;25.146;2023-09-19T04:13:09;17.75;;;7.40;;
61407;SDS011;47274;43.054;25.146;2023-09-19T04:15:35;14.65;;;7.25;;
61407;SDS011;47274;43.054;25.146;2023-09-19T04:18:05;17.23;;;7.75;;
61407;SDS011;47274;43.054;25.146;2023-09-19T04:20:31;15.93;;;7.40;;
61407;SDS011;47274;43.054;25.146;2023-09-19T04:22:57;15.77;;;6.88;;
61407;SDS011;47274;43.054;25.146;2023-09-19T04:25:23;14.38;;;6.95;;
61407;SDS011;47274;43.054;25.146;2023-09-19T04:27:53;15.80;;;7.28;;
61407;SDS011;47274;43.054;25.146;2023-09-19T04:30:21;16.20;;;6.88;;
61407;SDS011;47274;43.054;25.146;2023-09-19T04:32:47;15.07;;;7.05;;
61407;SDS011;47274;43.054;25.146;2023-09-19T04:35:16;15.52;;;7.25;;
61407;SDS011;47274;43.054;25.146;2023-09-19T04:37:41;13.65;;;7.15;;
61407;SDS011;47274;43.054;25.146;2023-09-19T04:40:08;15.35;;;6.35;;
61407;SDS011;47274;43.054;25.146;2023-09-19T04:42:39;13.18;;;6.97;;
61407;SDS011;47274;43.054;25.146;2023-09-19T04:45:06;13.07;;;6.47;;
61407;SDS011;47274;43.054;25.146;2023-09-19T04:47:33;15.25;;;6.28;;
61407;SDS011;47274;43.054;25.146;2023-09-19T04:49:59;15.85;;;6.57;;
61407;SDS011;47274;43.054;25.146;2023-09-19T04:52:25;15.60;;;6.55;;
61407;SDS011;47274;43.054;25.146;2023-09-19T04:54:51;15.20;;;6.25;;
61407;SDS011;47274;43.054;25.146;2023-09-19T04:57:17;15.48;;;6.55;;
61407;SDS011;47274;43.054;25.146;2023-09-19T04:59:42;14.40;;;6.75;;
61407;SDS011;47274;43.054;25.146;2023-09-19T05:02:08;15.65;;;6.38;;
61407;SDS011;47274;43.054;25.146;2023-09-19T05:04:34;16.80;;;6.03;;
61407;SDS011;47274;43.054;25.146;2023-09-19T05:07:01;11.55;;;6.05;;
61407;SDS011;47274;43.054;25.146;2023-09-19T05:09:28;12.98;;;6.03;;
61407;SDS011;47274;43.054;25.146;2023-09-19T05:11:54;12.63;;;5.65;;
61407;SDS011;47274;43.054;25.146;2023-09-19T05:14:21;11.65;;;5.55;;
61407;SDS011;47274;43.054;25.146;2023-09-19T05:16:47;13.00;;;5.50;;
61407;SDS011;47274;43.054;25.146;2023-09-19T05:19:13;11.43;;;5.40;;
61407;SDS011;47274;43.054;25.146;2023-09-19T05:21:42;13.00;;;5.68;;
61407;SDS011;47274;43.054;25.146;2023-09-19T05:24:17;12.50;;;5.75;;
61407;SDS011;47274;43.054;25.146;2023-09-19T05:26:43;12.77;;;5.50;;
61407;SDS011;47274;43.054;25.146;2023-09-19T05:29:10;12.77;;;5.43;;
61407;SDS011;47274;43.054;25.146;2023-09-19T05:31:36;11.73;;;5.85;;
61407;SDS011;47274;43.054;25.146;2023-09-19T05:34:06;12.25;;;5.80;;
61407;SDS011;47274;43.054;25.146;2023-09-19T05:36:32;11.68;;;5.70;;
61407;SDS011;47274;43.054;25.146;2023-09-19T05:38:58;11.45;;;5.13;;
61407;SDS011;47274;43.054;25.146;2023-09-19T05:41:24;11.13;;;5.32;;
61407;SDS011;47274;43.054;25.146;2023-09-19T05:43:50;12.70;;;5.40;;
61407;SDS011;47274;43.054;25.146;2023-09-19T05:46:16;12.02;;;5.70;;
61407;SDS011;47274;43.054;25.146;2023-09-19T05:48:43;10.90;;;4.95;;
61407;SDS011;47274;43.054;25.146;2023-09-19T05:51:09;12.85;;;5.05;;
61407;SDS011;47274;43.054;25.146;2023-09-19T05:53:35;12.57;;;5.00;;
61407;SDS011;47274;43.054;25.146;2023-09-19T05:56:01;10.60;;;5.20;;
61407;SDS011;47274;43.054;25.146;2023-09-19T05:58:26;11.57;;;5.00;;
61407;SDS011;47274;43.054;25.146;2023-09-19T06:00:52;10.73;;;5.10;;
61407;SDS011;47274;43.054;25.146;2023-09-19T06:03:18;9.73;;;5.00;;
61407;SDS011;47274;43.054;25.146;2023-09-19T06:05:44;13.10;;;5.30;;
61407;SDS011;47274;43.054;25.146;2023-09-19T06:08:11;9.25;;;5.00;;
61407;SDS011;47274;43.054;25.146;2023-09-19T06:10:37;11.98;;;5.13;;
61407;SDS011;47274;43.054;25.146;2023-09-19T06:13:04;14.23;;;5.10;;
61407;SDS011;47274;43.054;25.146;2023-09-19T06:15:31;10.70;;;4.68;;
61407;SDS011;47274;43.054;25.146;2023-09-19T06:17:59;10.60;;;4.97;;
61407;SDS011;47274;43.054;25.146;2023-09-19T06:20:25;11.80;;;5.20;;
61407;SDS011;47274;43.054;25.146;2023-09-19T06:22:52;11.98;;;5.50;;
61407;SDS011;47274;43.054;25.146;2023-09-19T06:25:19;11.15;;;4.50;;
61407;SDS011;47274;43.054;25.146;2023-09-19T06:30:14;11.65;;;5.20;;
61407;SDS011;47274;43.054;25.146;2023-09-19T06:32:41;11.55;;;4.85;;
61407;SDS011;47274;43.054;25.146;2023-09-19T06:35:11;10.23;;;5.00;;
61407;SDS011;47274;43.054;25.146;2023-09-19T06:37:38;13.38;;;5.30;;
61407;SDS011;47274;43.054;25.146;2023-09-19T06:40:06;11.55;;;5.32;;
61407;SDS011;47274;43.054;25.146;2023-09-19T06:42:43;11.57;;;5.25;;
61407;SDS011;47274;43.054;25.146;2023-09-19T06:45:11;10.80;;;5.13;;
61407;SDS011;47274;43.054;25.146;2023-09-19T06:47:39;12.07;;;5.13;;
61407;SDS011;47274;43.054;25.146;2023-09-19T06:50:05;11.45;;;5.20;;
61407;SDS011;47274;43.054;25.146;2023-09-19T06:52:34;10.18;;;4.85;;
61407;SDS011;47274;43.054;25.146;2023-09-19T06:55:00;9.60;;;4.90;;
61407;SDS011;47274;43.054;25.146;2023-09-19T06:57:28;9.75;;;4.55;;
61407;SDS011;47274;43.054;25.146;2023-09-19T06:59:57;9.65;;;4.97;;
61407;SDS011;47274;43.054;25.146;2023-09-19T07:02:23;8.90;;;4.78;;
61407;SDS011;47274;43.054;25.146;2023-09-19T07:04:49;12.15;;;5.30;;
61407;SDS011;47274;43.054;25.146;2023-09-19T07:07:15;8.63;;;4.72;;
61407;SDS011;47274;43.054;25.146;2023-09-19T07:09:41;11.75;;;4.80;;
61407;SDS011;47274;43.054;25.146;2023-09-19T07:12:07;9.68;;;4.90;;
61407;SDS011;47274;43.054;25.146;2023-09-19T07:14:33;11.40;;;5.30;;
61407;SDS011;47274;43.054;25.146;2023-09-19T07:17:02;11.10;;;4.75;;
61407;SDS011;47274;43.054;25.146;2023-09-19T07:19:29;9.15;;;5.00;;
61407;SDS011;47274;43.054;25.146;2023-09-19T07:21:57;8.35;;;4.90;;
61407;SDS011;47274;43.054;25.146;2023-09-19T07:24:24;7.43;;;4.68;;
61407;SDS011;47274;43.054;25.146;2023-09-19T07:26:52;8.70;;;4.47;;
61407;SDS011;47274;43.054;25.146;2023-09-19T07:29:18;9.23;;;4.53;;
61407;SDS011;47274;43.054;25.146;2023-09-19T07:31:44;8.80;;;4.65;;
61407;SDS011;47274;43.054;25.146;2023-09-19T07:34:10;11.40;;;4.57;;
61407;SDS011;47274;43.054;25.146;2023-09-19T07:36:35;9.57;;;4.50;;
61407;SDS011;47274;43.054;25.146;2023-09-19T07:39:05;8.23;;;4.32;;
61407;SDS011;47274;43.054;25.146;2023-09-19T07:41:32;8.70;;;4.60;;
61407;SDS011;47274;43.054;25.146;2023-09-19T07:43:58;9.55;;;4.40;;
61407;SDS011;47274;43.054;25.146;2023-09-19T07:46:24;8.45;;;4.55;;
61407;SDS011;47274;43.054;25.146;2023-09-19T07:48:51;8.90;;;4.32;;
61407;SDS011;47274;43.054;25.146;2023-09-19T07:51:17;8.88;;;4.38;;
61407;SDS011;47274;43.054;25.146;2023-09-19T07:53:43;7.00;;;4.20;;
61407;SDS011;47274;43.054;25.146;2023-09-19T07:56:09;10.38;;;4.50;;
61407;SDS011;47274;43.054;25.146;2023-09-19T07:58:35;8.77;;;4.60;;
61407;SDS011;47274;43.054;25.146;2023-09-19T08:01:06;7.30;;;4.30;;
61407;SDS011;47274;43.054;25.146;2023-09-19T08:03:36;9.25;;;4.13;;
61407;SDS011;47274;43.054;25.146;2023-09-19T08:06:06;10.02;;;4.70;;
61407;SDS011;47274;43.054;25.146;2023-09-19T08:08:32;7.70;;;4.15;;
61407;SDS011;47274;43.054;25.146;2023-09-19T08:11:03;9.48;;;4.30;;
61407;SDS011;47274;43.054;25.146;2023-09-19T08:13:37;7.57;;;3.97;;
61407;SDS011;47274;43.054;25.146;2023-09-19T08:16:12;8.57;;;4.05;;
61407;SDS011;47274;43.054;25.146;2023-09-19T08:18:40;10.20;;;4.38;;
61407;SDS011;47274;43.054;25.146;2023-09-19T08:21:07;9.38;;;4.30;;
61407;SDS011;47274;43.054;25.146;2023-09-19T08:23:39;6.50;;;4.10;;
61407;SDS011;47274;43.054;25.146;2023-09-19T08:26:06;8.63;;;4.00;;
61407;SDS011;47274;43.054;25.146;2023-09-19T08:28:33;10.48;;;4.30;;
61407;SDS011;47274;43.054;25.146;2023-09-19T08:31:03;9.00;;;3.90;;
61407;SDS011;47274;43.054;25.146;2023-09-19T08:33:33;8.30;;;4.05;;
61407;SDS011;47274;43.054;25.146;2023-09-19T08:36:03;7.97;;;4.22;;
61407;SDS011;47274;43.054;25.146;2023-09-19T08:38:33;8.98;;;4.40;;
61407;SDS011;47274;43.054;25.146;2023-09-19T08:41:00;6.15;;;4.20;;
61407;SDS011;47274;43.054;25.146;2023-09-19T08:43:31;6.40;;;3.85;;
61407;SDS011;47274;43.054;25.146;2023-09-19T08:46:15;10.23;;;4.43;;
61407;SDS011;47274;43.054;25.146;2023-09-19T08:48:46;9.40;;;3.92;;
61407;SDS011;47274;43.054;25.146;2023-09-19T08:51:26;6.60;;;3.90;;
61407;SDS011;47274;43.054;25.146;2023-09-19T08:54:03;7.13;;;3.67;;
61407;SDS011;47274;43.054;25.146;2023-09-19T08:56:32;8.00;;;4.13;;
61407;SDS011;47274;43.054;25.146;2023-09-19T08:59:04;5.80;;;3.90;;
61407;SDS011;47274;43.054;25.146;2023-09-19T09:01:37;6.85;;;4.13;;
61407;SDS011;47274;43.054;25.146;2023-09-19T09:04:10;8.05;;;4.07;;
61407;SDS011;47274;43.054;25.146;2023-09-19T09:06:41;7.60;;;3.90;;
61407;SDS011;47274;43.054;25.146;2023-09-19T09:09:10;7.82;;;3.70;;
61407;SDS011;47274;43.054;25.146;2023-09-19T09:11:36;6.68;;;3.75;;
61407;SDS011;47274;43.054;25.146;2023-09-19T09:14:05;4.95;;;3.50;;
61407;SDS011;47274;43.054;25.146;2023-09-19T09:16:35;4.78;;;3.20;;
61407;SDS011;47274;43.054;25.146;2023-09-19T09:19:10;7.57;;;3.55;;
61407;SDS011;47274;43.054;25.146;2023-09-19T09:21:38;14.48;;;3.60;;
61407;SDS011;47274;43.054;25.146;2023-09-19T09:26:58;6.57;;;3.40;;
61407;SDS011;47274;43.054;25.146;2023-09-19T09:29:41;6.55;;;3.40;;
61407;SDS011;47274;43.054;25.146;2023-09-19T09:37:16;5.03;;;3.17;;
61407;SDS011;47274;43.054;25.146;2023-09-19T09:39:51;6.13;;;3.38;;
61407;SDS011;47274;43.054;25.146;2023-09-19T09:42:33;5.43;;;3.30;;
61407;SDS011;47274;43.054;25.146;2023-09-19T09:47:58;5.13;;;3.20;;
61407;SDS011;47274;43.054;25.146;2023-09-19T09:53:19;5.00;;;3.10;;
61407;SDS011;47274;43.054;25.146;2023-09-19T09:55:59;5.50;;;3.03;;
61407;SDS011;47274;43.054;25.146;2023-09-19T09:58:40;5.75;;;3.30;;
61407;SDS011;47274;43.054;25.146;2023-09-19T10:01:17;4.22;;;2.80;;
61407;SDS011;47274;43.054;25.146;2023-09-19T10:03:43;4.40;;;2.78;;
61407;SDS011;47274;43.054;25.146;2023-09-19T10:06:13;3.65;;;2.75;;
61407;SDS011;47274;43.054;25.146;2023-09-19T10:09:02;3.83;;;3.00;;
61407;SDS011;47274;43.054;25.146;2023-09-19T10:11:43;5.93;;;2.80;;
61407;SDS011;47274;43.054;25.146;2023-09-19T10:14:10;4.63;;;2.90;;
61407;SDS011;47274;43.054;25.146;2023-09-19T10:16:48;5.72;;;2.90;;
61407;SDS011;47274;43.054;25.146;2023-09-19T10:19:15;6.80;;;2.90;;
61407;SDS011;47274;43.054;25.146;2023-09-19T10:22:02;5.68;;;2.90;;
61407;SDS011;47274;43.054;25.146;2023-09-19T10:24:31;3.95;;;2.80;;
61407;SDS011;47274;43.054;25.146;2023-09-19T10:27:01;6.77;;;2.80;;
61407;SDS011;47274;43.054;25.146;2023-09-19T10:29:29;3.20;;;2.90;;
61407;SDS011;47274;43.054;25.146;2023-09-19T10:31:59;4.30;;;2.72;;
61407;SDS011;47274;43.054;25.146;2023-09-19T10:34:26;3.92;;;2.80;;
61407;SDS011;47274;43.054;25.146;2023-09-19T10:36:55;5.82;;;3.10;;
61407;SDS011;47274;43.054;25.146;2023-09-19T10:39:21;5.35;;;3.20;;
61407;SDS011;47274;43.054;25.146;2023-09-19T10:41:53;5.25;;;3.53;;
61407;SDS011;47274;43.054;25.146;2023-09-19T10:44:24;4.65;;;3.38;;
61407;SDS011;47274;43.054;25.146;2023-09-19T10:46:54;5.85;;;3.53;;
61407;SDS011;47274;43.054;25.146;2023-09-19T10:49:23;5.22;;;3.20;;
61407;SDS011;47274;43.054;25.146;2023-09-19T10:51:50;5.57;;;3.20;;
61407;SDS011;47274;43.054;25.146;2023-09-19T10:54:21;7.50;;;3.22;;
61407;SDS011;47274;43.054;25.146;2023-09-19T10:56:52;4.72;;;2.90;;
61407;SDS011;47274;43.054;25.146;2023-09-19T10:59:19;5.30;;;3.05;;
61407;SDS011;47274;43.054;25.146;2023-09-19T11:01:50;5.47;;;3.35;;
61407;SDS011;47274;43.054;25.146;2023-09-19T11:04:23;4.63;;;3.20;;
61407;SDS011;47274;43.054;25.146;2023-09-19T11:15:07;3.78;;;3.00;;
61407;SDS011;47274;43.054;25.146;2023-09-19T11:17:41;6.82;;;3.15;;
61407;SDS011;47274;43.054;25.146;2023-09-19T11:30:31;4.43;;;3.08;;
61407;SDS011;47274;43.054;25.146;2023-09-19T11:51:40;4.75;;;2.92;;
61407;SDS011;47274;43.054;25.146;2023-09-19T11:56:40;3.95;;;3.00;;
61407;SDS011;47274;43.054;25.146;2023-09-19T11:59:09;5.95;;;2.97;;
61407;SDS011;47274;43.054;25.146;2023-09-19T12:01:35;6.05;;;3.03;;
61407;SDS011;47274;43.054;25.146;2023-09-19T12:04:08;5.22;;;2.95;;
61407;SDS011;47274;43.054;25.146;2023-09-19T12:06:37;4.22;;;3.00;;
61407;SDS011;47274;43.054;25.146;2023-09-19T12:09:11;6.35;;;2.85;;
61407;SDS011;47274;43.054;25.146;2023-09-19T12:11:42;3.83;;;2.90;;
61407;SDS011;47274;43.054;25.146;2023-09-19T12:14:11;4.82;;;2.90;;
61407;SDS011;47274;43.054;25.146;2023-09-19T12:16:53;5.35;;;3.03;;
61407;SDS011;47274;43.054;25.146;2023-09-19T12:19:21;5.25;;;2.75;;
61407;SDS011;47274;43.054;25.146;2023-09-19T12:21:54;6.25;;;3.40;;
61407;SDS011;47274;43.054;25.146;2023-09-19T12:24:23;5.43;;;3.10;;
61407;SDS011;47274;43.054;25.146;2023-09-19T12:26:56;4.30;;;2.85;;
61407;SDS011;47274;43.054;25.146;2023-09-19T12:29:32;6.18;;;3.22;;
61407;SDS011;47274;43.054;25.146;2023-09-19T12:32:08;4.30;;;2.90;;
61407;SDS011;47274;43.054;25.146;2023-09-19T12:34:34;4.80;;;3.13;;
61407;SDS011;47274;43.054;25.146;2023-09-19T12:37:10;3.30;;;2.90;;
61407;SDS011;47274;43.054;25.146;2023-09-19T12:39:41;4.38;;;2.85;;
61407;SDS011;47274;43.054;25.146;2023-09-19T12:42:10;5.60;;;3.00;;
61407;SDS011;47274;43.054;25.146;2023-09-19T12:44:42;5.13;;;3.38;;
61407;SDS011;47274;43.054;25.146;2023-09-19T12:47:16;6.10;;;3.20;;
61407;SDS011;47274;43.054;25.146;2023-09-19T13:00:32;5.07;;;3.30;;
61407;SDS011;47274;43.054;25.146;2023-09-19T13:03:12;4.97;;;3.22;;
61407;SDS011;47274;43.054;25.146;2023-09-19T13:05:54;7.65;;;3.50;;
61407;SDS011;47274;43.054;25.146;2023-09-19T13:08:26;7.10;;;3.20;;
61407;SDS011;47274;43.054;25.146;2023-09-19T13:13:27;5.30;;;3.38;;
61407;SDS011;47274;43.054;25.146;2023-09-19T13:15:55;4.82;;;3.33;;
61407;SDS011;47274;43.054;25.146;2023-09-19T13:18:23;4.68;;;3.22;;
61407;SDS011;47274;43.054;25.146;2023-09-19T13:21:06;5.47;;;3.20;;
61407;SDS011;47274;43.054;25.146;2023-09-19T13:23:38;3.95;;;3.05;;
61407;SDS011;47274;43.054;25.146;2023-09-19T13:26:03;5.10;;;2.97;;
61407;SDS011;47274;43.054;25.146;2023-09-19T13:28:33;4.55;;;3.20;;
61407;SDS011;47274;43.054;25.146;2023-09-19T13:30:59;7.47;;;3.45;;
61407;SDS011;47274;43.054;25.146;2023-09-19T13:33:25;8.20;;;3.58;;
61407;SDS011;47274;43.054;25.146;2023-09-19T13:35:51;6.60;;;3.25;;
61407;SDS011;47274;43.054;25.146;2023-09-19T13:38:18;6.32;;;3.60;;
61407;SDS011;47274;43.054;25.146;2023-09-19T13:40:47;10.93;;;3.80;;
61407;SDS011;47274;43.054;25.146;2023-09-19T13:43:13;6.38;;;3.65;;
61407;SDS011;47274;43.054;25.146;2023-09-19T13:45:39;3.45;;;2.90;;
61407;SDS011;47274;43.054;25.146;2023-09-19T13:48:07;5.50;;;3.40;;
61407;SDS011;47274;43.054;25.146;2023-09-19T13:50:40;4.82;;;3.15;;
61407;SDS011;47274;43.054;25.146;2023-09-19T13:53:09;4.50;;;3.03;;
61407;SDS011;47274;43.054;25.146;2023-09-19T13:55:34;5.25;;;3.35;;
61407;SDS011;47274;43.054;25.146;2023-09-19T13:58:03;3.97;;;3.17;;
61407;SDS011;47274;43.054;25.146;2023-09-19T14:00:32;5.57;;;3.25;;
61407;SDS011;47274;43.054;25.146;2023-09-19T14:03:01;6.93;;;3.10;;
61407;SDS011;47274;43.054;25.146;2023-09-19T14:05:27;6.18;;;3.40;;
61407;SDS011;47274;43.054;25.146;2023-09-19T14:07:55;6.18;;;3.35;;
61407;SDS011;47274;43.054;25.146;2023-09-19T14:10:21;5.53;;;3.22;;
61407;SDS011;47274;43.054;25.146;2023-09-19T14:12:47;6.60;;;3.50;;
61407;SDS011;47274;43.054;25.146;2023-09-19T14:15:13;6.00;;;3.40;;
61407;SDS011;47274;43.054;25.146;2023-09-19T14:17:39;5.20;;;3.20;;
61407;SDS011;47274;43.054;25.146;2023-09-19T14:20:12;6.55;;;3.50;;
61407;SDS011;47274;43.054;25.146;2023-09-19T14:22:39;5.07;;;3.30;;
61407;SDS011;47274;43.054;25.146;2023-09-19T14:25:05;10.65;;;3.22;;
61407;SDS011;47274;43.054;25.146;2023-09-19T14:27:31;5.93;;;3.42;;
61407;SDS011;47274;43.054;25.146;2023-09-19T14:29:57;6.35;;;3.70;;
61407;SDS011;47274;43.054;25.146;2023-09-19T14:32:23;7.72;;;3.55;;
61407;SDS011;47274;43.054;25.146;2023-09-19T14:34:49;7.40;;;3.88;;
61407;SDS011;47274;43.054;25.146;2023-09-19T14:37:15;7.57;;;3.60;;
61407;SDS011;47274;43.054;25.146;2023-09-19T14:39:41;9.68;;;3.50;;
61407;SDS011;47274;43.054;25.146;2023-09-19T14:42:10;4.78;;;3.30;;
61407;SDS011;47274;43.054;25.146;2023-09-19T14:44:36;5.85;;;3.25;;
61407;SDS011;47274;43.054;25.146;2023-09-19T14:47:05;4.95;;;3.30;;
61407;SDS011;47274;43.054;25.146;2023-09-19T14:49:35;11.02;;;3.70;;
61407;SDS011;47274;43.054;25.146;2023-09-19T14:52:06;5.97;;;3.50;;
61407;SDS011;47274;43.054;25.146;2023-09-19T14:54:33;6.63;;;3.45;;
61407;SDS011;47274;43.054;25.146;2023-09-19T14:56:59;6.20;;;3.20;;
61407;SDS011;47274;43.054;25.146;2023-09-19T14:59:31;6.43;;;3.65;;
61407;SDS011;47274;43.054;25.146;2023-09-19T15:01:57;7.15;;;3.60;;
61407;SDS011;47274;43.054;25.146;2023-09-19T15:04:23;4.93;;;3.50;;
61407;SDS011;47274;43.054;25.146;2023-09-19T15:06:49;5.00;;;3.22;;
61407;SDS011;47274;43.054;25.146;2023-09-19T15:09:21;5.88;;;3.60;;
61407;SDS011;47274;43.054;25.146;2023-09-19T15:11:49;4.90;;;3.47;;
61407;SDS011;47274;43.054;25.146;2023-09-19T15:14:15;7.25;;;3.70;;
61407;SDS011;47274;43.054;25.146;2023-09-19T15:16:41;8.07;;;3.65;;
61407;SDS011;47274;43.054;25.146;2023-09-19T15:19:09;6.15;;;3.33;;
61407;SDS011;47274;43.054;25.146;2023-09-19T15:21:35;8.50;;;3.83;;
61407;SDS011;47274;43.054;25.146;2023-09-19T15:24:02;10.38;;;3.83;;
61407;SDS011;47274;43.054;25.146;2023-09-19T15:26:30;7.70;;;3.67;;
61407;SDS011;47274;43.054;25.146;2023-09-19T15:28:56;6.00;;;3.30;;
61407;SDS011;47274;43.054;25.146;2023-09-19T15:31:22;5.65;;;3.50;;
61407;SDS011;47274;43.054;25.146;2023-09-19T15:33:47;5.78;;;3.08;;
61407;SDS011;47274;43.054;25.146;2023-09-19T15:36:14;7.55;;;3.80;;
61407;SDS011;47274;43.054;25.146;2023-09-19T15:41:18;5.25;;;3.28;;
61407;SDS011;47274;43.054;25.146;2023-09-19T15:43:45;12.30;;;3.95;;
61407;SDS011;47274;43.054;25.146;2023-09-19T15:46:11;5.38;;;3.35;;
61407;SDS011;47274;43.054;25.146;2023-09-19T15:48:37;5.95;;;3.55;;
61407;SDS011;47274;43.054;25.146;2023-09-19T15:51:03;5.60;;;3.40;;
61407;SDS011;47274;43.054;25.146;2023-09-19T15:53:51;5.03;;;3.35;;
61407;SDS011;47274;43.054;25.146;2023-09-19T15:56:17;10.10;;;3.97;;
61407;SDS011;47274;43.054;25.146;2023-09-19T15:58:44;6.30;;;3.63;;
61407;SDS011;47274;43.054;25.146;2023-09-19T16:01:11;8.57;;;3.65;;
61407;SDS011;47274;43.054;25.146;2023-09-19T16:03:37;7.55;;;3.72;;
61407;SDS011;47274;43.054;25.146;2023-09-19T16:06:08;6.50;;;3.70;;
61407;SDS011;47274;43.054;25.146;2023-09-19T16:11:07;6.30;;;3.53;;
61407;SDS011;47274;43.054;25.146;2023-09-19T16:13:34;9.65;;;3.50;;